Terminal Aerodrome Forecast
Issued by NWS

Home | Current Version | Previous Version | Graphics & Text | Print | Product List | Glossary On
Versions: 1 2 3 4 5 6 7 8 9 10 11 12 13 14 15 16 17 18 19
000
FTUS43 KGRB 161700 AAC
TAFAUW
TAF AMD
KAUW 161701Z 1617/1712 34013G20KT 3SM -SN BR BKN015 OVC030
     FM162200 31012KT P6SM -SN BKN020 OVC035=

USA.gov is the U.S. government's official web portal to all federal, state and local government web resources and services.